Time;durP1;ratioP1;P1;durP2;ratioP2;P2;SDS_P1;SDS_P2;PMS_P1;PMS_P2;Temp;Humidity;BMP_temperature;BMP_pressure;BME280_temperature;BME280_humidity;BME280_pressure;Samples;Min_cycle;Max_cycle;Signal;HPM_P1;HPM_P2
2021/07/03 00:01:52;;;;;;;17.58;12.85;;;;;;;;;;5130074;28;20197;-66
2021/07/03 00:04:21;;;;;;;17.75;12.88;;;;;;;;;;5112765;28;20238;-65
2021/07/03 00:06:49;;;;;;;20.58;12.60;;;;;;;;;;5112182;28;20605;-63
2021/07/03 00:09:17;;;;;;;15.07;12.20;;;;;;;;;;5113917;28;20206;-64
2021/07/03 00:11:47;;;;;;;16.90;11.93;;;;;;;;;;5118421;27;20619;-64
2021/07/03 00:14:16;;;;;;;15.43;11.13;;;;;;;;;;5137210;27;20191;-65
2021/07/03 00:16:44;;;;;;;19.15;12.25;;;;;;;;;;5136410;27;20293;-66
2021/07/03 00:19:12;;;;;;;17.70;12.35;;;;;;;;;;5136422;27;20233;-64
2021/07/03 00:21:41;;;;;;;16.23;12.07;;;;;;;;;;5138268;27;20549;-64
2021/07/03 00:24:09;;;;;;;15.25;11.30;;;;;;;;;;5138473;27;20290;-65
2021/07/03 00:26:37;;;;;;;14.77;11.77;;;;;;;;;;5139847;27;20205;-65
2021/07/03 00:29:06;;;;;;;15.50;11.48;;;;;;;;;;5137136;27;20685;-66
2021/07/03 00:31:35;;;;;;;15.65;12.07;;;;;;;;;;5136228;27;20729;-65
2021/07/03 00:34:03;;;;;;;14.68;11.40;;;;;;;;;;5136448;27;20203;-65
2021/07/03 00:36:31;;;;;;;14.45;11.55;;;;;;;;;;5125446;27;20194;-65
2021/07/03 00:38:59;;;;;;;13.73;10.07;;;;;;;;;;5136760;27;20209;-65
2021/07/03 00:41:28;;;;;;;14.40;11.05;;;;;;;;;;5136664;27;20607;-63
2021/07/03 00:43:56;;;;;;;13.98;11.65;;;;;;;;;;5136425;27;20195;-65
2021/07/03 00:46:26;;;;;;;13.65;11.80;;;;;;;;;;5136094;27;20294;-64
2021/07/03 00:48:54;;;;;;;13.82;11.13;;;;;;;;;;5136501;27;20215;-64
2021/07/03 00:51:22;;;;;;;15.30;12.18;;;;;;;;;;5115466;28;20196;-65
2021/07/03 00:53:50;;;;;;;13.93;10.85;;;;;;;;;;5115537;28;20310;-64
2021/07/03 00:56:18;;;;;;;14.05;11.65;;;;;;;;;;5115845;28;20202;-65
2021/07/03 00:58:46;;;;;;;15.45;11.82;;;;;;;;;;5115815;28;20657;-65
2021/07/03 01:01:15;;;;;;;16.83;12.48;;;;;;;;;;5115628;28;20199;-64
2021/07/03 01:03:44;;;;;;;17.45;13.18;;;;;;;;;;5115683;28;20203;-64
2021/07/03 01:06:12;;;;;;;17.42;13.40;;;;;;;;;;5115180;28;20238;-65
2021/07/03 01:08:40;;;;;;;17.05;12.40;;;;;;;;;;5115421;28;20219;-65
2021/07/03 01:11:09;;;;;;;20.27;13.50;;;;;;;;;;5115457;28;20199;-65
2021/07/03 01:13:37;;;;;;;18.05;12.77;;;;;;;;;;5115223;28;20294;-62
2021/07/03 01:16:06;;;;;;;19.60;14.13;;;;;;;;;;5115301;28;20257;-63
2021/07/03 01:18:35;;;;;;;16.98;13.25;;;;;;;;;;5115186;28;20209;-62
2021/07/03 01:21:05;;;;;;;18.95;13.95;;;;;;;;;;5114202;28;20199;-62
2021/07/03 01:23:35;;;;;;;19.15;13.98;;;;;;;;;;5115375;28;20184;-61
2021/07/03 01:26:03;;;;;;;16.48;13.82;;;;;;;;;;5115143;28;20202;-62
2021/07/03 01:28:31;;;;;;;18.15;13.38;;;;;;;;;;5115181;28;20222;-63
2021/07/03 01:30:59;;;;;;;17.85;13.05;;;;;;;;;;5115077;28;20206;-62
2021/07/03 01:33:28;;;;;;;19.35;13.73;;;;;;;;;;5114982;28;20250;-62
2021/07/03 01:35:56;;;;;;;20.33;15.27;;;;;;;;;;5114759;28;20550;-62
2021/07/03 01:38:25;;;;;;;21.67;16.15;;;;;;;;;;5114683;28;20234;-62
2021/07/03 01:40:55;;;;;;;19.25;15.20;;;;;;;;;;5114700;28;20205;-62
2021/07/03 01:43:23;;;;;;;22.65;15.88;;;;;;;;;;5114877;28;20287;-62
2021/07/03 01:45:52;;;;;;;21.25;16.38;;;;;;;;;;5114825;28;20346;-62
2021/07/03 01:48:24;;;;;;;22.52;16.25;;;;;;;;;;5114569;28;20226;-62
2021/07/03 01:50:52;;;;;;;20.85;14.90;;;;;;;;;;5114234;28;20789;-63
2021/07/03 01:53:21;;;;;;;21.20;15.13;;;;;;;;;;5114311;28;20553;-62
2021/07/03 01:55:49;;;;;;;21.05;15.68;;;;;;;;;;5114434;28;20199;-62
2021/07/03 01:58:20;;;;;;;23.42;16.50;;;;;;;;;;5114551;28;20191;-62
2021/07/03 02:00:49;;;;;;;23.88;16.70;;;;;;;;;;5114709;28;20253;-62
2021/07/03 02:03:17;;;;;;;20.92;14.90;;;;;;;;;;5114554;28;20203;-62
2021/07/03 02:05:46;;;;;;;20.92;16.08;;;;;;;;;;5114184;28;20213;-63
2021/07/03 02:08:14;;;;;;;17.90;13.68;;;;;;;;;;5114293;28;20309;-62
2021/07/03 02:10:43;;;;;;;19.17;13.77;;;;;;;;;;5114249;28;20206;-61
2021/07/03 02:13:11;;;;;;;22.33;14.65;;;;;;;;;;5114214;28;20250;-62
2021/07/03 02:15:41;;;;;;;20.20;13.57;;;;;;;;;;5113819;28;20196;-62
2021/07/03 02:18:09;;;;;;;19.90;13.90;;;;;;;;;;5113844;28;20624;-62
2021/07/03 02:20:38;;;;;;;16.73;13.25;;;;;;;;;;5113593;28;20207;-61
2021/07/03 02:23:06;;;;;;;18.73;13.50;;;;;;;;;;5114162;28;20565;-62
2021/07/03 02:25:35;;;;;;;17.38;13.23;;;;;;;;;;5113576;28;20667;-62
2021/07/03 02:28:03;;;;;;;18.95;13.90;;;;;;;;;;5113805;28;20199;-61
2021/07/03 02:30:32;;;;;;;17.42;12.38;;;;;;;;;;5113648;28;20206;-62
2021/07/03 02:33:01;;;;;;;16.25;12.65;;;;;;;;;;5113453;28;20614;-62
2021/07/03 02:35:30;;;;;;;14.50;11.68;;;;;;;;;;5113813;28;20206;-62
2021/07/03 02:37:58;;;;;;;13.93;11.48;;;;;;;;;;5113678;28;20290;-63
2021/07/03 02:40:26;;;;;;;14.25;10.80;;;;;;;;;;5113375;28;20554;-62
2021/07/03 02:42:55;;;;;;;15.75;11.45;;;;;;;;;;5113565;28;20294;-61
2021/07/03 02:45:24;;;;;;;16.20;11.73;;;;;;;;;;5113452;28;20199;-62
2021/07/03 02:47:52;;;;;;;14.13;11.30;;;;;;;;;;5113530;28;20203;-62
2021/07/03 02:50:22;;;;;;;15.35;11.27;;;;;;;;;;5124872;27;20229;-62
2021/07/03 02:52:50;;;;;;;12.50;10.55;;;;;;;;;;5133911;27;20595;-62
2021/07/03 02:55:18;;;;;;;12.75;10.77;;;;;;;;;;5133628;27;20205;-62
2021/07/03 02:57:46;;;;;;;12.38;10.00;;;;;;;;;;5134063;27;20195;-62
2021/07/03 03:00:16;;;;;;;12.63;10.05;;;;;;;;;;5133447;27;20205;-62
2021/07/03 03:02:44;;;;;;;13.32;10.70;;;;;;;;;;5134077;27;20199;-62
2021/07/03 03:05:13;;;;;;;13.48;9.93;;;;;;;;;;5133314;27;20207;-62
2021/07/03 03:07:43;;;;;;;12.38;10.27;;;;;;;;;;5133851;27;20290;-62
2021/07/03 03:10:13;;;;;;;13.15;10.73;;;;;;;;;;5133362;27;20594;-62
2021/07/03 03:12:41;;;;;;;14.00;10.95;;;;;;;;;;5133674;27;20203;-62
2021/07/03 03:15:11;;;;;;;13.23;10.50;;;;;;;;;;5133346;27;20666;-61
2021/07/03 03:17:40;;;;;;;13.98;11.18;;;;;;;;;;5133490;27;20610;-62
2021/07/03 03:20:10;;;;;;;14.07;11.23;;;;;;;;;;5133527;27;20194;-62
2021/07/03 03:22:38;;;;;;;13.18;11.65;;;;;;;;;;5133627;27;20277;-62
2021/07/03 03:25:09;;;;;;;13.98;11.60;;;;;;;;;;5133419;28;20203;-62
2021/07/03 03:27:37;;;;;;;13.98;12.32;;;;;;;;;;5133686;28;20244;-63
2021/07/03 03:30:06;;;;;;;13.07;11.55;;;;;;;;;;5133408;28;20215;-61
2021/07/03 03:32:34;;;;;;;13.38;11.32;;;;;;;;;;5133503;28;20289;-63
2021/07/03 03:35:04;;;;;;;13.52;11.13;;;;;;;;;;5133330;28;20202;-62
2021/07/03 03:37:32;;;;;;;12.40;10.82;;;;;;;;;;5133665;28;20205;-61
2021/07/03 03:40:00;;;;;;;12.85;11.05;;;;;;;;;;5133392;28;20224;-63
2021/07/03 03:42:29;;;;;;;12.55;10.75;;;;;;;;;;5133462;28;20226;-63
2021/07/03 03:44:58;;;;;;;18.23;14.68;;;;;;;;;;5135607;27;20749;-62
2021/07/03 03:47:26;;;;;;;15.15;11.75;;;;;;;;;;5137376;27;20202;-62
2021/07/03 03:49:54;;;;;;;12.13;10.02;;;;;;;;;;5137118;27;20281;-62
2021/07/03 03:52:23;;;;;;;12.88;10.13;;;;;;;;;;5137482;27;20297;-62
2021/07/03 03:54:51;;;;;;;12.48;10.23;;;;;;;;;;5137054;27;20676;-62
2021/07/03 03:57:22;;;;;;;13.20;10.68;;;;;;;;;;5137252;27;20614;-63
2021/07/03 03:59:53;;;;;;;10.90;9.75;;;;;;;;;;5137304;27;20186;-62
2021/07/03 04:02:21;;;;;;;10.63;9.52;;;;;;;;;;5137492;27;20270;-60
2021/07/03 04:04:50;;;;;;;11.65;9.60;;;;;;;;;;5136723;27;20293;-61
2021/07/03 04:07:19;;;;;;;11.70;9.80;;;;;;;;;;5137217;27;20195;-62
2021/07/03 04:09:47;;;;;;;12.80;10.15;;;;;;;;;;5137149;27;20225;-63
2021/07/03 04:12:15;;;;;;;10.63;9.25;;;;;;;;;;5137248;27;20548;-62
2021/07/03 04:14:43;;;;;;;10.77;9.32;;;;;;;;;;5136796;27;20218;-61
2021/07/03 04:17:13;;;;;;;11.13;9.93;;;;;;;;;;5137172;27;20203;-62
2021/07/03 04:19:41;;;;;;;10.10;9.10;;;;;;;;;;5137204;27;20198;-62
2021/07/03 04:22:10;;;;;;;11.13;9.93;;;;;;;;;;5136833;27;20203;-62
2021/07/03 04:24:38;;;;;;;13.00;9.60;;;;;;;;;;5137020;27;20201;-63
2021/07/03 04:27:06;;;;;;;11.82;10.45;;;;;;;;;;5137092;27;20201;-61
2021/07/03 04:29:34;;;;;;;11.73;9.75;;;;;;;;;;5136582;27;20576;-61
2021/07/03 04:32:02;;;;;;;10.32;9.23;;;;;;;;;;5136624;27;20209;-62
2021/07/03 04:34:32;;;;;;;10.35;8.85;;;;;;;;;;5137583;27;20654;-62
2021/07/03 04:37:01;;;;;;;9.80;8.80;;;;;;;;;;5137038;27;20195;-62
2021/07/03 04:39:29;;;;;;;10.30;9.23;;;;;;;;;;5137120;27;20194;-63
2021/07/03 04:41:57;;;;;;;11.52;8.85;;;;;;;;;;5136837;27;20199;-62
2021/07/03 04:44:25;;;;;;;10.52;9.18;;;;;;;;;;5136588;27;20201;-63
2021/07/03 04:46:54;;;;;;;9.88;8.88;;;;;;;;;;5136678;27;20205;-62
2021/07/03 04:49:22;;;;;;;11.93;8.68;;;;;;;;;;5136208;27;20749;-62
2021/07/03 04:51:51;;;;;;;10.82;9.73;;;;;;;;;;5136465;27;20185;-63
2021/07/03 04:54:20;;;;;;;10.18;9.18;;;;;;;;;;5136447;27;20237;-62
2021/07/03 04:56:48;;;;;;;11.77;9.30;;;;;;;;;;5136398;27;20633;-65
2021/07/03 04:59:16;;;;;;;9.80;8.80;;;;;;;;;;5136434;27;20203;-66
2021/07/03 05:01:44;;;;;;;11.98;9.55;;;;;;;;;;5136219;27;20287;-65
2021/07/03 05:04:12;;;;;;;10.98;9.00;;;;;;;;;;5136371;27;20199;-65
2021/07/03 05:06:41;;;;;;;10.27;9.13;;;;;;;;;;5132676;27;20202;-65
2021/07/03 05:09:10;;;;;;;9.65;8.55;;;;;;;;;;5136002;27;20194;-65
2021/07/03 05:11:38;;;;;;;12.35;9.38;;;;;;;;;;5135715;27;20302;-65
2021/07/03 05:14:06;;;;;;;11.18;9.77;;;;;;;;;;5136007;27;20195;-64
2021/07/03 05:16:35;;;;;;;11.18;8.63;;;;;;;;;;5136103;27;20202;-65
2021/07/03 05:19:04;;;;;;;10.63;8.68;;;;;;;;;;5135968;27;20241;-64
2021/07/03 05:21:32;;;;;;;10.00;7.25;;;;;;;;;;5135405;27;20205;-66
2021/07/03 05:24:00;;;;;;;8.90;7.32;;;;;;;;;;5136086;27;20201;-65
2021/07/03 05:26:30;;;;;;;8.95;7.78;;;;;;;;;;5135700;27;20291;-64
2021/07/03 05:28:58;;;;;;;9.30;8.40;;;;;;;;;;5135306;27;20637;-65
2021/07/03 05:31:26;;;;;;;9.23;8.32;;;;;;;;;;5135643;27;20218;-66
2021/07/03 05:33:54;;;;;;;9.40;8.43;;;;;;;;;;5135361;27;20297;-65
2021/07/03 05:36:23;;;;;;;9.27;8.38;;;;;;;;;;5135221;27;20294;-66
2021/07/03 05:38:51;;;;;;;9.45;8.45;;;;;;;;;;5135308;27;20669;-65
2021/07/03 05:41:20;;;;;;;11.07;8.48;;;;;;;;;;5134981;27;20662;-65
2021/07/03 05:43:50;;;;;;;9.55;8.63;;;;;;;;;;5135350;27;20199;-64
2021/07/03 05:46:18;;;;;;;10.88;8.70;;;;;;;;;;5135278;27;20199;-65
2021/07/03 05:48:46;;;;;;;9.80;8.35;;;;;;;;;;5135305;27;20276;-65
2021/07/03 05:51:14;;;;;;;10.35;8.80;;;;;;;;;;5134489;27;20262;-65
2021/07/03 05:53:42;;;;;;;10.88;9.70;;;;;;;;;;5135320;27;20223;-65
2021/07/03 05:56:11;;;;;;;11.85;9.52;;;;;;;;;;5135023;27;20294;-64
2021/07/03 05:58:39;;;;;;;12.90;10.60;;;;;;;;;;5135183;27;20205;-65
2021/07/03 06:01:08;;;;;;;13.32;10.68;;;;;;;;;;5134509;27;20205;-65
2021/07/03 06:03:36;;;;;;;17.48;12.10;;;;;;;;;;5134966;27;20198;-64
2021/07/03 06:06:05;;;;;;;14.13;11.88;;;;;;;;;;5134792;27;20209;-64
2021/07/03 06:08:33;;;;;;;16.85;11.82;;;;;;;;;;5134396;27;20195;-64
2021/07/03 06:11:01;;;;;;;14.95;11.82;;;;;;;;;;5134609;27;20330;-65
2021/07/03 06:13:30;;;;;;;14.63;11.10;;;;;;;;;;5134752;27;20754;-64
2021/07/03 06:15:59;;;;;;;12.77;10.43;;;;;;;;;;5134421;27;20739;-67
2021/07/03 06:18:28;;;;;;;12.73;9.80;;;;;;;;;;5134521;27;20203;-66
2021/07/03 06:20:57;;;;;;;13.48;11.05;;;;;;;;;;5134301;27;20754;-65
2021/07/03 06:23:25;;;;;;;16.13;11.70;;;;;;;;;;5134484;27;20200;-65
2021/07/03 06:25:53;;;;;;;13.57;10.15;;;;;;;;;;5134399;27;20194;-66
2021/07/03 06:28:21;;;;;;;14.27;9.65;;;;;;;;;;5134740;27;20195;-64
2021/07/03 06:30:49;;;;;;;12.38;10.10;;;;;;;;;;5134021;27;20698;-65
2021/07/03 06:33:18;;;;;;;16.15;10.73;;;;;;;;;;5134464;27;20194;-65
2021/07/03 06:35:47;;;;;;;14.60;10.15;;;;;;;;;;5134192;27;20549;-65
2021/07/03 06:38:15;;;;;;;11.43;10.10;;;;;;;;;;5134394;27;20297;-65
2021/07/03 06:40:44;;;;;;;13.10;9.80;;;;;;;;;;5134012;27;20230;-65
2021/07/03 06:43:12;;;;;;;13.38;10.30;;;;;;;;;;5134121;27;20206;-65
2021/07/03 06:45:40;;;;;;;13.98;9.95;;;;;;;;;;5134121;27;20268;-65
2021/07/03 06:48:08;;;;;;;11.77;9.40;;;;;;;;;;5134237;27;20277;-65
2021/07/03 06:50:37;;;;;;;12.73;9.63;;;;;;;;;;5133391;27;20230;-65
2021/07/03 06:53:06;;;;;;;10.95;8.70;;;;;;;;;;5134038;27;20194;-65
2021/07/03 06:55:34;;;;;;;11.50;9.82;;;;;;;;;;5134002;27;20195;-65
2021/07/03 06:58:02;;;;;;;10.32;7.80;;;;;;;;;;5134135;27;20202;-65
2021/07/03 07:00:31;;;;;;;11.90;9.80;;;;;;;;;;5133942;27;20305;-66
2021/07/03 07:02:59;;;;;;;12.73;9.50;;;;;;;;;;5134030;27;20202;-64
2021/07/03 07:05:29;;;;;;;11.52;9.10;;;;;;;;;;5133428;27;20195;-65
2021/07/03 07:07:57;;;;;;;10.98;9.32;;;;;;;;;;5133592;27;20692;-65
2021/07/03 07:10:27;;;;;;;10.57;9.50;;;;;;;;;;5133152;27;20202;-65
2021/07/03 07:12:55;;;;;;;10.43;8.98;;;;;;;;;;5133791;27;20210;-66
2021/07/03 07:15:23;;;;;;;8.73;7.82;;;;;;;;;;5133240;27;20681;-64
2021/07/03 07:17:51;;;;;;;10.77;9.48;;;;;;;;;;5133250;27;20651;-64
2021/07/03 07:20:19;;;;;;;10.70;8.43;;;;;;;;;;5132903;27;20202;-65
2021/07/03 07:22:47;;;;;;;8.90;8.07;;;;;;;;;;5133651;27;20285;-65
2021/07/03 07:25:15;;;;;;;10.15;8.50;;;;;;;;;;5133588;28;20568;-65
2021/07/03 07:27:45;;;;;;;11.63;9.30;;;;;;;;;;5133071;28;20213;-65
2021/07/03 07:30:14;;;;;;;9.65;8.65;;;;;;;;;;5130932;28;20195;-65
2021/07/03 07:32:42;;;;;;;9.93;8.80;;;;;;;;;;5133395;28;20218;-64
2021/07/03 07:35:11;;;;;;;8.88;7.97;;;;;;;;;;5133384;28;20198;-65
2021/07/03 07:37:44;;;;;;;10.85;9.75;;;;;;;;;;5133286;28;20189;-65
2021/07/03 07:40:13;;;;;;;9.32;8.43;;;;;;;;;;5133485;28;20233;-64
2021/07/03 07:42:41;;;;;;;10.13;9.07;;;;;;;;;;5133008;28;20282;-64
2021/07/03 07:45:12;;;;;;;9.77;8.85;;;;;;;;;;5133058;28;20222;-64
2021/07/03 07:47:46;;;;;;;13.00;10.43;;;;;;;;;;5133133;28;20631;-65
2021/07/03 07:50:15;;;;;;;11.70;9.98;;;;;;;;;;5132742;28;20230;-64
2021/07/03 07:52:43;;;;;;;12.43;10.80;;;;;;;;;;5133312;28;20218;-64
2021/07/03 07:55:12;;;;;;;11.32;10.13;;;;;;;;;;5133203;28;20202;-64
2021/07/03 07:57:40;;;;;;;10.75;9.65;;;;;;;;;;5133179;28;20654;-66
2021/07/03 08:00:09;;;;;;;12.20;10.43;;;;;;;;;;5132974;28;20634;-64
2021/07/03 08:02:39;;;;;;;12.45;10.10;;;;;;;;;;5132990;28;20294;-65
2021/07/03 08:05:08;;;;;;;10.68;9.57;;;;;;;;;;5132994;28;20224;-64
2021/07/03 08:07:36;;;;;;;11.95;10.20;;;;;;;;;;5133250;28;20199;-64
2021/07/03 08:10:05;;;;;;;10.02;9.02;;;;;;;;;;5132938;28;20201;-67
2021/07/03 08:12:33;;;;;;;10.80;8.88;;;;;;;;;;5133148;28;20228;-66
2021/07/03 08:15:02;;;;;;;10.95;9.65;;;;;;;;;;5132996;28;20210;-67
2021/07/03 08:17:30;;;;;;;10.82;9.63;;;;;;;;;;5133001;28;20241;-67
2021/07/03 08:20:00;;;;;;;10.93;9.80;;;;;;;;;;5133236;28;20210;-67
2021/07/03 08:22:28;;;;;;;11.18;9.95;;;;;;;;;;5132769;28;20294;-67
2021/07/03 08:24:57;;;;;;;12.52;9.98;;;;;;;;;;5132914;28;20285;-68
2021/07/03 08:27:25;;;;;;;11.82;9.57;;;;;;;;;;5132544;28;20673;-66
2021/07/03 08:29:53;;;;;;;8.45;7.60;;;;;;;;;;5132204;27;20693;-67
2021/07/03 08:32:22;;;;;;;8.02;7.25;;;;;;;;;;5135737;27;20211;-67
2021/07/03 08:34:50;;;;;;;9.25;8.27;;;;;;;;;;5136363;27;20203;-67
2021/07/03 08:37:20;;;;;;;8.95;7.90;;;;;;;;;;5135755;27;20676;-67
2021/07/03 08:39:48;;;;;;;9.73;8.77;;;;;;;;;;5136175;27;20202;-68
2021/07/03 08:42:16;;;;;;;9.43;8.48;;;;;;;;;;5136541;27;20195;-67
2021/07/03 08:44:48;;;;;;;10.05;9.10;;;;;;;;;;5136093;27;20285;-66
2021/07/03 08:47:16;;;;;;;11.23;8.88;;;;;;;;;;5139585;27;20199;-66
2021/07/03 08:49:50;;;;;;;9.40;7.88;;;;;;;;;;5144244;27;20256;-67
2021/07/03 08:52:20;;;;;;;9.10;8.20;;;;;;;;;;5143111;27;20203;-67
2021/07/03 08:54:54;;;;;;;8.35;7.40;;;;;;;;;;5136363;27;20198;-66
2021/07/03 08:57:25;;;;;;;8.25;7.45;;;;;;;;;;5136731;27;20208;-66
2021/07/03 08:59:57;;;;;;;9.02;7.32;;;;;;;;;;5136175;27;20199;-67
2021/07/03 09:02:32;;;;;;;6.95;6.07;;;;;;;;;;5136425;27;20190;-67
2021/07/03 09:05:01;;;;;;;4.90;4.40;;;;;;;;;;5136378;27;20277;-65
2021/07/03 09:07:35;;;;;;;5.00;4.47;;;;;;;;;;5136184;27;20198;-67
2021/07/03 09:10:03;;;;;;;4.78;4.28;;;;;;;;;;5135816;27;20619;-67
2021/07/03 09:12:34;;;;;;;5.53;5.03;;;;;;;;;;5135736;27;20268;-66
2021/07/03 09:15:10;;;;;;;7.30;6.50;;;;;;;;;;5135624;27;20635;-66
2021/07/03 09:17:48;;;;;;;7.50;5.85;;;;;;;;;;5135950;27;20198;-66
2021/07/03 09:20:22;;;;;;;6.50;5.90;;;;;;;;;;5135954;27;20213;-67
2021/07/03 09:22:52;;;;;;;6.53;5.93;;;;;;;;;;5135938;27;20274;-67
2021/07/03 09:25:21;;;;;;;8.07;7.22;;;;;;;;;;5135493;27;20199;-67
2021/07/03 09:27:49;;;;;;;8.10;6.15;;;;;;;;;;5135792;27;20247;-67
2021/07/03 09:30:22;;;;;;;6.30;5.70;;;;;;;;;;5135760;27;20183;-68
2021/07/03 09:32:51;;;;;;;6.57;5.97;;;;;;;;;;5135712;27;20219;-67
2021/07/03 09:35:20;;;;;;;6.35;5.75;;;;;;;;;;5135527;27;20201;-65
2021/07/03 09:37:49;;;;;;;6.25;5.65;;;;;;;;;;5135780;27;20241;-65
2021/07/03 09:40:19;;;;;;;6.63;6.03;;;;;;;;;;5135566;27;20199;-65
2021/07/03 09:42:47;;;;;;;5.88;5.32;;;;;;;;;;5134622;27;20191;-65
2021/07/03 09:45:16;;;;;;;6.00;5.50;;;;;;;;;;5135284;27;20198;-65
2021/07/03 09:47:44;;;;;;;6.70;6.00;;;;;;;;;;5135090;27;20293;-66
2021/07/03 09:50:14;;;;;;;6.32;5.75;;;;;;;;;;5135441;27;20280;-65
2021/07/03 09:52:42;;;;;;;6.80;5.80;;;;;;;;;;5135086;27;20218;-65
2021/07/03 09:55:11;;;;;;;6.40;5.80;;;;;;;;;;5135344;27;20203;-65
2021/07/03 09:57:41;;;;;;;7.70;6.70;;;;;;;;;;5135283;27;20202;-66
2021/07/03 10:00:11;;;;;;;6.40;5.80;;;;;;;;;;5135001;27;20202;-64
2021/07/03 10:02:50;;;;;;;5.88;5.30;;;;;;;;;;5135266;27;20178;-64
2021/07/03 10:05:19;;;;;;;5.70;5.20;;;;;;;;;;5135065;27;20195;-66
2021/07/03 10:07:48;;;;;;;6.57;5.25;;;;;;;;;;5135412;27;20205;-66
2021/07/03 10:10:19;;;;;;;5.68;5.18;;;;;;;;;;5134921;27;20195;-66
2021/07/03 10:12:50;;;;;;;5.15;4.65;;;;;;;;;;5134939;27;20305;-66
2021/07/03 10:15:27;;;;;;;5.88;4.65;;;;;;;;;;5134619;27;20190;-66
2021/07/03 10:17:55;;;;;;;5.07;4.68;;;;;;;;;;5134647;27;20222;-66
2021/07/03 10:20:24;;;;;;;5.28;4.88;;;;;;;;;;5134538;27;20234;-65
2021/07/03 10:22:53;;;;;;;5.63;5.07;;;;;;;;;;5134712;27;20384;-64
2021/07/03 10:25:31;;;;;;;5.85;5.35;;;;;;;;;;5134263;27;20757;-65
2021/07/03 10:28:02;;;;;;;5.20;4.70;;;;;;;;;;5134488;27;20832;-66
2021/07/03 10:30:31;;;;;;;5.30;4.80;;;;;;;;;;5134679;27;20191;-65
2021/07/03 10:33:03;;;;;;;5.45;5.05;;;;;;;;;;5134347;27;20553;-65
2021/07/03 10:35:40;;;;;;;5.93;5.38;;;;;;;;;;5134900;27;20199;-64
2021/07/03 10:38:19;;;;;;;6.80;5.10;;;;;;;;;;5134314;27;20589;-65
2021/07/03 10:40:47;;;;;;;5.00;4.57;;;;;;;;;;5134270;27;20195;-66
2021/07/03 10:43:17;;;;;;;5.30;4.90;;;;;;;;;;5133969;27;20221;-65
2021/07/03 10:45:46;;;;;;;5.88;4.95;;;;;;;;;;5133771;27;20723;-65
2021/07/03 10:48:16;;;;;;;5.40;4.90;;;;;;;;;;5133935;27;20614;-66
2021/07/03 10:50:44;;;;;;;6.05;4.55;;;;;;;;;;5133943;27;20230;-65
2021/07/03 10:53:20;;;;;;;5.60;5.00;;;;;;;;;;5133476;27;20764;-67
2021/07/03 10:55:48;;;;;;;4.93;4.50;;;;;;;;;;5133640;27;20183;-67
2021/07/03 10:58:19;;;;;;;4.78;4.38;;;;;;;;;;5133583;27;20209;-66
2021/07/03 11:00:50;;;;;;;5.07;4.68;;;;;;;;;;5133740;27;20535;-66
2021/07/03 11:03:23;;;;;;;4.63;4.25;;;;;;;;;;5133586;27;20232;-66
2021/07/03 11:05:51;;;;;;;4.60;4.20;;;;;;;;;;5133586;27;20190;-66
2021/07/03 11:08:37;;;;;;;4.68;4.28;;;;;;;;;;5133714;27;20244;-66
2021/07/03 11:11:08;;;;;;;4.80;4.40;;;;;;;;;;5133481;27;20210;-67
2021/07/03 11:13:37;;;;;;;4.90;4.32;;;;;;;;;;5133637;27;20293;-65
2021/07/03 11:16:08;;;;;;;5.35;4.85;;;;;;;;;;5133305;27;20202;-67
2021/07/03 11:18:38;;;;;;;5.43;4.93;;;;;;;;;;5133612;27;20202;-67
2021/07/03 11:21:07;;;;;;;5.63;5.13;;;;;;;;;;5133420;27;20205;-66
2021/07/03 11:23:36;;;;;;;5.72;5.30;;;;;;;;;;5133589;27;20290;-67
2021/07/03 11:26:10;;;;;;;5.15;4.72;;;;;;;;;;5133081;27;20203;-66
2021/07/03 11:28:39;;;;;;;5.53;5.03;;;;;;;;;;5133561;27;20269;-66
2021/07/03 11:31:08;;;;;;;5.90;5.40;;;;;;;;;;5133445;27;20195;-66
2021/07/03 11:33:40;;;;;;;5.70;5.30;;;;;;;;;;5133152;28;20203;-66
2021/07/03 11:36:11;;;;;;;5.03;4.60;;;;;;;;;;5133493;28;20288;-66
2021/07/03 11:38:39;;;;;;;5.00;4.60;;;;;;;;;;5133231;28;20547;-66
2021/07/03 11:41:07;;;;;;;5.22;4.82;;;;;;;;;;5133217;28;20289;-65
2021/07/03 11:43:36;;;;;;;5.35;4.70;;;;;;;;;;5133226;28;20197;-66
2021/07/03 11:46:05;;;;;;;5.20;4.53;;;;;;;;;;5133115;28;20387;-66
2021/07/03 11:48:35;;;;;;;5.30;4.38;;;;;;;;;;5133320;28;20199;-65
2021/07/03 11:51:04;;;;;;;4.88;4.47;;;;;;;;;;5132922;28;20232;-67
2021/07/03 11:53:33;;;;;;;5.20;4.70;;;;;;;;;;5132876;28;20763;-66
2021/07/03 11:56:03;;;;;;;5.13;4.65;;;;;;;;;;5132811;28;20202;-66
2021/07/03 11:58:31;;;;;;;5.43;4.93;;;;;;;;;;5133271;28;20223;-66
2021/07/03 12:01:00;;;;;;;5.32;4.93;;;;;;;;;;5133042;28;20199;-66
2021/07/03 12:03:31;;;;;;;5.03;4.63;;;;;;;;;;5133158;28;20195;-66
2021/07/03 12:06:00;;;;;;;4.70;4.30;;;;;;;;;;5135634;27;20183;-66
2021/07/03 12:08:32;;;;;;;4.88;4.47;;;;;;;;;;5136899;27;20673;-66
2021/07/03 12:11:02;;;;;;;4.25;3.72;;;;;;;;;;5136890;27;20218;-66
2021/07/03 12:13:31;;;;;;;3.63;3.33;;;;;;;;;;5136887;27;20313;-66
2021/07/03 12:16:04;;;;;;;5.70;4.03;;;;;;;;;;5136780;27;20198;-66
2021/07/03 12:18:35;;;;;;;4.50;4.10;;;;;;;;;;5136623;27;20197;-66
2021/07/03 12:21:05;;;;;;;4.07;3.72;;;;;;;;;;5136441;27;20194;-66
2021/07/03 12:23:33;;;;;;;4.25;3.90;;;;;;;;;;5136864;27;20277;-68
2021/07/03 12:26:03;;;;;;;4.60;4.20;;;;;;;;;;5136669;27;20195;-66
2021/07/03 12:28:31;;;;;;;4.43;3.80;;;;;;;;;;5136550;27;20194;-67
2021/07/03 12:31:09;;;;;;;5.03;4.18;;;;;;;;;;5136493;27;20203;-66
2021/07/03 12:33:40;;;;;;;3.95;3.65;;;;;;;;;;5136507;27;20250;-66
2021/07/03 12:36:18;;;;;;;4.47;4.07;;;;;;;;;;5136534;27;20356;-67
2021/07/03 12:38:46;;;;;;;4.55;4.15;;;;;;;;;;5136313;27;20732;-67
2021/07/03 12:41:14;;;;;;;4.60;4.20;;;;;;;;;;5136425;27;20202;-67
2021/07/03 12:43:43;;;;;;;4.50;4.10;;;;;;;;;;5136287;27;20199;-66
2021/07/03 12:46:11;;;;;;;4.50;4.10;;;;;;;;;;5136300;27;20281;-67
2021/07/03 12:48:43;;;;;;;4.78;4.38;;;;;;;;;;5135889;27;20666;-66
2021/07/03 12:51:14;;;;;;;4.70;4.30;;;;;;;;;;5135643;27;20234;-67
2021/07/03 12:53:42;;;;;;;3.72;3.42;;;;;;;;;;5136131;27;20199;-67
2021/07/03 12:56:15;;;;;;;4.30;4.00;;;;;;;;;;5136331;27;20187;-70
2021/07/03 12:58:43;;;;;;;3.50;3.30;;;;;;;;;;5136521;27;20234;-66
2021/07/03 13:01:11;;;;;;;4.25;3.95;;;;;;;;;;5136386;27;20775;-67
2021/07/03 13:03:41;;;;;;;5.38;4.22;;;;;;;;;;5142430;27;20194;-66
2021/07/03 13:06:10;;;;;;;4.97;3.72;;;;;;;;;;5140769;27;20658;-67
2021/07/03 13:08:38;;;;;;;4.00;3.70;;;;;;;;;;5138416;27;20285;-66
2021/07/03 13:11:07;;;;;;;3.95;3.65;;;;;;;;;;5135851;27;20642;-67
2021/07/03 13:13:36;;;;;;;4.03;3.72;;;;;;;;;;5135909;27;20615;-67
2021/07/03 13:16:04;;;;;;;3.92;3.63;;;;;;;;;;5135311;27;20757;-67
2021/07/03 13:18:33;;;;;;;3.95;3.65;;;;;;;;;;5135607;27;20230;-67
2021/07/03 13:21:02;;;;;;;4.20;3.90;;;;;;;;;;5135808;27;20658;-67
2021/07/03 13:23:33;;;;;;;4.38;3.97;;;;;;;;;;5135776;27;20232;-67
2021/07/03 13:26:02;;;;;;;5.28;4.82;;;;;;;;;;5135451;27;20605;-67
2021/07/03 13:28:31;;;;;;;5.13;4.35;;;;;;;;;;5135673;27;20654;-66
2021/07/03 13:30:59;;;;;;;4.82;4.45;;;;;;;;;;5135878;27;20203;-66
2021/07/03 13:33:27;;;;;;;5.10;4.65;;;;;;;;;;5135561;27;20255;-67
2021/07/03 13:35:55;;;;;;;5.13;4.57;;;;;;;;;;5135448;27;20641;-67
2021/07/03 13:38:25;;;;;;;6.40;4.50;;;;;;;;;;5135601;27;20202;-65
2021/07/03 13:40:53;;;;;;;4.40;4.10;;;;;;;;;;5135240;27;20289;-66
2021/07/03 13:43:21;;;;;;;4.20;3.80;;;;;;;;;;5135433;27;20230;-67
2021/07/03 13:45:49;;;;;;;4.20;3.80;;;;;;;;;;5135616;27;20190;-66
2021/07/03 13:48:21;;;;;;;4.72;4.18;;;;;;;;;;5135731;27;20191;-66
2021/07/03 13:50:49;;;;;;;4.68;3.92;;;;;;;;;;5135041;27;20322;-66
2021/07/03 13:53:18;;;;;;;4.25;3.85;;;;;;;;;;5135186;27;20248;-66
2021/07/03 13:55:47;;;;;;;3.95;3.65;;;;;;;;;;5134940;27;20313;-66
2021/07/03 13:58:16;;;;;;;4.10;3.70;;;;;;;;;;5135522;27;20198;-66
2021/07/03 14:00:44;;;;;;;3.88;3.58;;;;;;;;;;5135174;27;20198;-66
2021/07/03 14:03:12;;;;;;;3.80;3.50;;;;;;;;;;5135320;27;20199;-66
2021/07/03 14:05:41;;;;;;;3.40;3.20;;;;;;;;;;5134929;27;20741;-67
2021/07/03 14:08:09;;;;;;;4.05;3.75;;;;;;;;;;5135268;27;20199;-65
2021/07/03 14:10:37;;;;;;;3.30;3.10;;;;;;;;;;5134602;27;20684;-67
2021/07/03 14:13:07;;;;;;;3.85;3.50;;;;;;;;;;5135333;27;20204;-66
2021/07/03 14:15:35;;;;;;;3.97;3.67;;;;;;;;;;5134756;27;20323;-66
2021/07/03 14:18:04;;;;;;;3.85;3.53;;;;;;;;;;5134938;27;20234;-67
2021/07/03 14:20:32;;;;;;;4.38;3.60;;;;;;;;;;5134958;27;20195;-66
2021/07/03 14:23:00;;;;;;;4.43;3.70;;;;;;;;;;5134735;27;20542;-67
2021/07/03 14:25:28;;;;;;;5.90;3.53;;;;;;;;;;5134667;27;20194;-67
2021/07/03 14:27:57;;;;;;;3.47;3.17;;;;;;;;;;5134415;27;20222;-65
2021/07/03 14:30:26;;;;;;;3.80;3.40;;;;;;;;;;5134486;27;20658;-66
2021/07/03 14:32:54;;;;;;;3.85;3.25;;;;;;;;;;5134689;27;20623;-66
2021/07/03 14:35:23;;;;;;;4.38;3.97;;;;;;;;;;5134392;27;20309;-66
2021/07/03 14:37:51;;;;;;;4.20;3.80;;;;;;;;;;5134669;27;20285;-66
2021/07/03 14:40:19;;;;;;;4.57;3.92;;;;;;;;;;5134423;27;20607;-66
2021/07/03 14:42:47;;;;;;;4.28;3.88;;;;;;;;;;5134450;27;20376;-66